Time;durP1;ratioP1;P1;durP2;ratioP2;P2;SDS_P1;SDS_P2;PMS_P1;PMS_P2;Temp;Humidity;BMP_temperature;BMP_pressure;BME280_temperature;BME280_humidity;BME280_pressure;Samples;Min_cycle;Max_cycle;Signal;HPM_P1;HPM_P2
2022/06/23 00:00:28;;;;;;;;;;;;;;;16.04;100.00;101001.44;5076757;28;19912;-81
2022/06/23 00:02:54;;;;;;;;;;;;;;;16.04;100.00;101006.84;5097018;28;19919;-81
2022/06/23 00:05:23;;;;;;;;;;;;;;;15.99;100.00;100999.38;5097757;28;19916;-80
2022/06/23 00:07:51;;;;;;;;;;;;;;;16.00;100.00;101002.94;5094533;28;19914;-81
2022/06/23 00:10:25;;;;;;;;;;;;;;;16.00;100.00;101000.25;5078704;28;19976;-82
2022/06/23 00:12:52;;;;;;;;;;;;;;;15.96;100.00;101006.13;5095958;28;19912;-81
2022/06/23 00:15:44;;;;;;;;;;;;;;;15.93;100.00;100998.44;5072854;28;19912;-82
2022/06/23 00:18:20;;;;;;;;;;;;;;;15.95;100.00;101009.88;5092967;28;19973;-82
2022/06/23 00:20:53;;;;;;;;;;;;;;;15.95;100.00;101009.06;5092424;28;19909;-82
2022/06/23 00:23:18;;;;;;;;;;;;;;;15.97;100.00;101013.19;5078859;28;19912;-81
2022/06/23 00:26:04;;;;;;;;;;;;;;;15.94;100.00;101013.66;5093937;28;20260;-82
2022/06/23 00:28:32;;;;;;;;;;;;;;;15.94;100.00;101013.66;5073953;28;20292;-81
2022/06/23 00:31:02;;;;;;;;;;;;;;;15.94;100.00;101013.66;5098422;28;20011;-80
2022/06/23 00:33:30;;;;;;;;;;;;;;;15.93;100.00;101011.19;5086605;28;19900;-82
2022/06/23 00:35:56;;;;;;;;;;;;;;;15.94;100.00;101008.22;5096618;28;19918;-82
2022/06/23 00:38:37;;;;;;;;;;;;;;;15.95;100.00;101026.16;5078258;28;19963;-81
2022/06/23 00:41:03;;;;;;;;;;;;;;;15.95;100.00;101023.44;5096799;28;20006;-82
2022/06/23 00:43:29;;;;;;;;;;;;;;;15.93;100.00;101027.47;5069145;28;19947;-81
2022/06/23 00:45:54;;;;;;;;;;;;;;;15.95;100.00;101026.16;5075080;28;19977;-81
2022/06/23 00:48:35;;;;;;;;;;;;;;;15.90;100.00;101025.22;5073525;28;20568;-82
2022/06/23 00:51:11;;;;;;;;;;;;;;;15.94;100.00;101031.84;5073132;28;20011;-82
2022/06/23 00:53:39;;;;;;;;;;;;;;;15.92;100.00;101036.66;5075841;28;20368;-81
2022/06/23 00:56:17;;;;;;;;;;;;;;;15.89;100.00;101027.09;5073533;28;19943;-82
2022/06/23 00:58:47;;;;;;;;;;;;;;;15.88;100.00;101030.84;5068394;28;20016;-82
2022/06/23 01:01:31;;;;;;;;;;;;;;;15.83;100.00;101035.31;5075609;28;19905;-81
2022/06/23 01:04:17;;;;;;;;;;;;;;;15.84;100.00;101034.25;5070657;28;20015;-82
2022/06/23 01:06:48;;;;;;;;;;;;;;;15.85;100.00;101034.03;5104524;28;20556;-81
2022/06/23 01:09:31;;;;;;;;;;;;;;;15.79;100.00;101040.34;5074149;28;19956;-80
2022/06/23 01:12:05;;;;;;;;;;;;;;;15.85;100.00;101033.19;5073771;28;19935;-81
2022/06/23 01:14:37;;;;;;;;;;;;;;;15.89;100.00;101035.25;5072360;28;19934;-81
2022/06/23 01:17:24;;;;;;;;;;;;;;;15.91;100.00;101040.44;5074965;28;19916;-80
2022/06/23 01:19:53;;;;;;;;;;;;;;;15.85;100.00;101041.34;5067158;28;19912;-81
2022/06/23 01:22:21;;;;;;;;;;;;;;;15.81;100.00;101034.72;5069729;28;19924;-81
2022/06/23 01:24:49;;;;;;;;;;;;;;;15.73;100.00;101033.97;5062145;28;19974;-81
2022/06/23 01:27:24;;;;;;;;;;;;;;;15.75;100.00;101031.03;5071406;28;19927;-81
2022/06/23 01:29:53;;;;;;;;;;;;;;;15.73;100.00;101041.28;5063931;28;20019;-80
2022/06/23 01:32:23;;;;;;;;;;;;;;;15.72;100.00;101031.47;5069534;28;19956;-81
2022/06/23 01:35:07;;;;;;;;;;;;;;;15.69;100.00;101032.78;5076008;28;19915;-81
2022/06/23 01:37:40;;;;;;;;;;;;;;;15.70;100.00;101023.56;5078557;28;19944;-82
2022/06/23 01:40:11;;;;;;;;;;;;;;;15.69;100.00;101038.19;5077178;28;20227;-81
2022/06/23 01:42:45;;;;;;;;;;;;;;;15.73;100.00;101044.81;5079545;28;20012;-83
2022/06/23 01:45:18;;;;;;;;;;;;;;;15.70;100.00;101047.16;5078826;28;19912;-81
2022/06/23 01:47:52;;;;;;;;;;;;;;;15.71;100.00;101055.06;5068868;28;19934;-82
2022/06/23 01:50:37;;;;;;;;;;;;;;;15.75;100.00;101058.16;5072176;28;19912;-81
2022/06/23 01:53:14;;;;;;;;;;;;;;;15.77;100.00;101057.94;5061938;28;19939;-81
2022/06/23 01:55:50;;;;;;;;;;;;;;;15.76;100.00;101067.13;5060531;28;19920;-82
2022/06/23 01:58:17;;;;;;;;;;;;;;;15.78;100.00;101062.31;5077416;28;19987;-81
2022/06/23 02:00:45;;;;;;;;;;;;;;;15.68;100.00;101068.25;5058583;28;19934;-82
2022/06/23 02:03:25;;;;;;;;;;;;;;;15.68;100.00;101068.25;5078694;28;19912;-81
2022/06/23 02:05:53;;;;;;;;;;;;;;;15.65;100.00;101068.69;5058286;28;19912;-81
2022/06/23 02:08:18;;;;;;;;;;;;;;;15.68;100.00;101077.22;5060836;28;20284;-81
2022/06/23 02:10:52;;;;;;;;;;;;;;;15.64;100.00;101078.69;5077984;28;19965;-81
2022/06/23 02:13:22;;;;;;;;;;;;;;;15.66;100.00;101076.63;5072854;28;19969;-81
2022/06/23 02:15:55;;;;;;;;;;;;;;;15.64;100.00;101076.00;5077582;28;19919;-81
2022/06/23 02:18:28;;;;;;;;;;;;;;;15.65;100.00;101079.53;5059836;28;19908;-82
2022/06/23 02:20:56;;;;;;;;;;;;;;;15.62;100.00;101079.97;5076913;28;20393;-82
2022/06/23 02:23:31;;;;;;;;;;;;;;;15.62;100.00;101080.81;5076777;28;19924;-81
2022/06/23 02:26:03;;;;;;;;;;;;;;;15.63;100.00;101085.19;5075868;28;20364;-82
2022/06/23 02:28:36;;;;;;;;;;;;;;;15.64;100.00;101088.72;5059425;28;19927;-80
2022/06/23 02:31:09;;;;;;;;;;;;;;;15.66;100.00;101092.03;5073176;28;20012;-82
2022/06/23 02:33:37;;;;;;;;;;;;;;;15.69;100.00;101097.88;5078058;28;19918;-80
2022/06/23 02:36:08;;;;;;;;;;;;;;;15.69;100.00;101102.47;5075047;28;19995;-80
2022/06/23 02:38:45;;;;;;;;;;;;;;;15.68;100.00;101100.81;5074265;28;19908;-82
2022/06/23 02:41:19;;;;;;;;;;;;;;;15.68;100.00;101106.25;5052812;28;19916;-81
2022/06/23 02:43:44;;;;;;;;;;;;;;;15.69;100.00;101105.16;5054778;28;19912;-82
2022/06/23 02:46:09;;;;;;;;;;;;;;;15.42;100.00;101062.03;5053233;28;19916;-81
2022/06/23 02:48:47;;;;;;;;;;;;;;;15.69;100.00;101106.03;5087664;28;20623;-82
2022/06/23 02:51:18;;;;;;;;;;;;;;;15.71;100.00;101116.63;5076918;28;20021;-82
2022/06/23 02:53:43;;;;;;;;;;;;;;;15.71;100.00;101116.63;5078742;28;19923;-81
2022/06/23 02:56:14;;;;;;;;;;;;;;;15.71;100.00;101112.03;5078757;28;20002;-82
2022/06/23 02:58:42;;;;;;;;;;;;;;;15.75;100.00;101123.25;5096286;28;20357;-82
2022/06/23 03:01:13;;;;;;;;;;;;;;;15.77;100.00;101121.16;5092523;28;19908;-82
2022/06/23 03:03:46;;;;;;;;;;;;;;;15.81;100.00;101127.78;5097405;28;19916;-81
2022/06/23 03:06:17;;;;;;;;;;;;;;;15.82;100.00;101126.72;5094371;28;19943;-82
2022/06/23 03:09:05;;;;;;;;;;;;;;;15.83;100.00;101131.13;5079276;28;20353;-82
2022/06/23 03:11:51;;;;;;;;;;;;;;;15.82;100.00;101140.31;5078512;28;20284;-82
2022/06/23 03:14:28;;;;;;;;;;;;;;;15.83;100.00;101138.44;5095373;28;19914;-82
2022/06/23 03:16:57;;;;;;;;;;;;;;;15.86;100.00;101141.53;5078838;28;19908;-81
2022/06/23 03:19:27;;;;;;;;;;;;;;;15.86;100.00;101152.38;5094847;28;19908;-81
2022/06/23 03:22:01;;;;;;;;;;;;;;;15.86;100.00;101151.53;5096644;28;20011;-81
2022/06/23 03:24:34;;;;;;;;;;;;;;;15.89;100.00;101145.66;5074858;28;19963;-81
2022/06/23 03:27:05;;;;;;;;;;;;;;;15.89;100.00;101154.66;5096802;28;20379;-81
2022/06/23 03:29:34;;;;;;;;;;;;;;;15.93;100.00;101150.41;5077715;28;19912;-82
2022/06/23 03:32:09;;;;;;;;;;;;;;;15.96;100.00;101147.25;5095058;28;19908;-81
2022/06/23 03:34:39;;;;;;;;;;;;;;;16.06;100.00;101152.16;5096723;28;19908;-82
2022/06/23 03:37:07;;;;;;;;;;;;;;;16.11;100.00;101170.47;5097070;28;19919;-82
2022/06/23 03:42:37;;;;;;;;;;;;;;;16.12;100.00;101172.94;5096661;28;19923;-80
2022/06/23 03:45:21;;;;;;;;;;;;;;;16.11;100.00;101176.72;5090711;28;19912;-82
2022/06/23 03:47:50;;;;;;;;;;;;;;;16.13;100.00;101180.06;5095268;28;19916;-81
2022/06/23 03:50:35;;;;;;;;;;;;;;;16.11;100.00;101168.56;5098036;28;19912;-82
2022/06/23 03:53:03;;;;;;;;;;;;;;;16.17;100.00;101169.56;5097149;28;19930;-82
2022/06/23 03:55:45;;;;;;;;;;;;;;;16.21;100.00;101178.91;5098431;28;19965;-81
2022/06/23 03:58:19;;;;;;;;;;;;;;;16.21;100.00;101171.59;5093434;28;19926;-82
2022/06/23 04:01:07;;;;;;;;;;;;;;;15.76;100.00;101114.09;5096876;28;19908;-81
2022/06/23 04:03:54;;;;;;;;;;;;;;;16.06;100.00;101178.44;5091548;28;19919;-82
2022/06/23 04:06:22;;;;;;;;;;;;;;;16.12;100.00;101180.25;5097180;28;19962;-80
2022/06/23 04:08:59;;;;;;;;;;;;;;;16.19;100.00;101184.56;5094150;28;19927;-82
2022/06/23 04:11:45;;;;;;;;;;;;;;;16.25;100.00;101187.41;5074597;28;19919;-82
2022/06/23 04:14:29;;;;;;;;;;;;;;;16.30;100.00;101185.69;5096765;28;19916;-82
2022/06/23 04:16:58;;;;;;;;;;;;;;;16.29;100.00;101194.06;5096790;28;19908;-81
2022/06/23 04:19:25;;;;;;;;;;;;;;;16.28;100.00;101192.41;5096744;28;19908;-81
2022/06/23 04:21:57;;;;;;;;;;;;;;;16.29;100.00;101202.19;5077072;28;20365;-82
2022/06/23 04:24:24;;;;;;;;;;;;;;;16.23;100.00;101201.25;5107522;27;19939;-82
2022/06/23 04:26:52;;;;;;;;;;;;;;;16.21;100.00;101203.34;5090364;28;20022;-81
2022/06/23 04:29:23;;;;;;;;;;;;;;;16.20;100.00;101201.69;5090671;28;19908;-82
2022/06/23 04:31:51;;;;;;;;;;;;;;;16.25;100.00;101212.69;5087442;28;19915;-80
2022/06/23 04:34:22;;;;;;;;;;;;;;;16.29;100.00;101215.78;5093733;28;19908;-81
2022/06/23 04:36:47;;;;;;;;;;;;;;;16.29;100.00;101204.91;5095193;28;20068;-82
2022/06/23 04:39:22;;;;;;;;;;;;;;;16.27;100.00;101217.91;5093358;28;20320;-82
2022/06/23 04:42:07;;;;;;;;;;;;;;;16.20;100.00;101223.41;5076216;28;19912;-81
2022/06/23 04:44:34;;;;;;;;;;;;;;;16.15;100.00;101225.97;5095118;28;20260;-83
2022/06/23 04:47:02;;;;;;;;;;;;;;;16.11;100.00;101220.16;5094028;28;19916;-82
2022/06/23 04:49:32;;;;;;;;;;;;;;;16.14;100.00;101224.31;5094419;28;19916;-82
2022/06/23 04:51:57;;;;;;;;;;;;;;;16.18;100.00;101228.22;5095881;28;20009;-82
2022/06/23 04:54:25;;;;;;;;;;;;;;;16.22;100.00;101226.72;5093868;28;19908;-81
2022/06/23 04:56:52;;;;;;;;;;;;;;;16.22;100.00;101224.00;5095771;28;19922;-82
2022/06/23 04:59:23;;;;;;;;;;;;;;;16.26;100.00;101222.50;5093602;28;19938;-82
2022/06/23 05:01:50;;;;;;;;;;;;;;;16.30;100.00;101221.00;5094343;28;19912;-81
2022/06/23 05:04:51;;;;;;;;;;;;;;;16.30;100.00;101221.00;5095202;28;19908;-81
2022/06/23 05:07:19;;;;;;;;;;;;;;;16.31;100.00;101224.53;5033639;28;19909;-81
2022/06/23 05:09:55;;;;;;;;;;;;;;;16.32;100.00;101218.88;5083807;28;19912;-81
2022/06/23 05:12:24;;;;;;;;;;;;;;;16.31;100.00;101238.13;5094640;28;19999;-81
2022/06/23 05:14:52;;;;;;;;;;;;;;;16.35;100.00;101226.56;5095626;28;19961;-81
2022/06/23 05:17:21;;;;;;;;;;;;;;;16.41;100.00;101227.56;5092541;28;19912;-81
2022/06/23 05:19:47;;;;;;;;;;;;;;;16.44;100.00;101225.19;5086339;28;20260;-81
2022/06/23 05:22:19;;;;;;;;;;;;;;;16.43;100.00;101231.69;5095536;28;19939;-82
2022/06/23 05:24:46;;;;;;;;;;;;;;;16.48;100.00;101233.72;5093335;28;19924;-82
2022/06/23 05:27:23;;;;;;;;;;;;;;;16.46;100.00;101244.00;5078305;28;19919;-81
2022/06/23 05:29:53;;;;;;;;;;;;;;;16.45;100.00;101245.03;5076621;28;19948;-80
2022/06/23 05:32:31;;;;;;;;;;;;;;;16.41;100.00;101244.66;5074617;28;19908;-81
2022/06/23 05:35:01;;;;;;;;;;;;;;;16.41;100.00;101241.94;5076268;28;20342;-82
2022/06/23 05:37:32;;;;;;;;;;;;;;;16.52;100.00;101247.69;5087198;28;19919;-82
2022/06/23 05:40:16;;;;;;;;;;;;;;;16.58;100.00;101244.06;5092882;28;19908;-82
2022/06/23 05:42:45;;;;;;;;;;;;;;;16.59;100.00;101253.88;5090569;28;19916;-81
2022/06/23 05:45:15;;;;;;;;;;;;;;;16.56;100.00;101243.47;5092351;28;19915;-83
2022/06/23 05:47:40;;;;;;;;;;;;;;;16.64;100.00;101235.00;5092107;28;19920;-82
2022/06/23 05:50:10;;;;;;;;;;;;;;;16.65;100.00;101234.78;5110617;27;20398;-82
2022/06/23 05:52:56;;;;;;;;;;;;;;;16.63;100.00;101245.03;5090929;28;19919;-82
2022/06/23 05:55:33;;;;;;;;;;;;;;;16.54;100.00;101245.56;5085160;28;19971;-83
2022/06/23 05:58:02;;;;;;;;;;;;;;;16.51;100.00;101251.47;5091399;28;19931;-81
2022/06/23 06:00:46;;;;;;;;;;;;;;;16.41;100.00;101252.81;5095553;28;20253;-81
2022/06/23 06:03:17;;;;;;;;;;;;;;;16.36;100.00;101251.84;5082830;28;19918;-81
2022/06/23 06:05:44;;;;;;;;;;;;;;;16.35;100.00;101252.91;5073771;28;20276;-81
2022/06/23 06:08:16;;;;;;;;;;;;;;;16.32;100.00;101248.75;5095418;28;20113;-82
2022/06/23 06:10:41;;;;;;;;;;;;;;;16.33;100.00;101255.84;5093642;28;19911;-81
2022/06/23 06:13:22;;;;;;;;;;;;;;;16.45;100.00;101248.59;5095781;28;20298;-80
2022/06/23 06:15:50;;;;;;;;;;;;;;;16.53;100.00;101261.06;5097207;28;19908;-82
2022/06/23 06:18:15;;;;;;;;;;;;;;;16.53;100.00;101258.34;5098629;28;19935;-82
2022/06/23 06:20:41;;;;;;;;;;;;;;;16.54;100.00;101257.28;5101902;28;19926;-82
2022/06/23 06:23:10;;;;;;;;;;;;;;;16.57;100.00;101259.53;5099248;28;20349;-83
2022/06/23 06:25:38;;;;;;;;;;;;;;;16.59;100.00;101260.16;5082538;28;20051;-82
2022/06/23 06:28:14;;;;;;;;;;;;;;;16.57;100.00;101262.25;5093793;28;19916;-81
2022/06/23 06:30:40;;;;;;;;;;;;;;;16.60;100.00;101267.22;5093553;28;19920;-82
2022/06/23 06:33:07;;;;;;;;;;;;;;;16.70;100.00;101274.84;5089827;28;20305;-82
2022/06/23 06:35:42;;;;;;;;;;;;;;;16.76;100.00;101271.25;5081516;28;19916;-83
2022/06/23 06:38:15;;;;;;;;;;;;;;;16.73;100.00;101276.28;5081164;28;19908;-82
2022/06/23 06:40:43;;;;;;;;;;;;;;;16.68;100.00;101279.66;5095173;28;19923;-82
2022/06/23 06:43:11;;;;;;;;;;;;;;;16.66;100.00;101285.34;5077140;28;19989;-82
2022/06/23 06:45:37;;;;;;;;;;;;;;;16.66;100.00;101287.22;5076875;28;19922;-82
2022/06/23 06:48:03;;;;;;;;;;;;;;;16.64;100.00;101290.16;5071814;28;20007;-81
2022/06/23 06:50:38;;;;;;;;;;;;;;;16.70;100.00;101287.59;5096274;28;20242;-81
2022/06/23 06:53:06;;;;;;;;;;;;;;;16.77;100.00;101296.53;5098918;28;19919;-82
2022/06/23 06:55:38;;;;;;;;;;;;;;;16.84;100.00;101300.81;5093280;28;19963;-82
2022/06/23 06:58:16;;;;;;;;;;;;;;;16.91;100.00;101304.28;5074321;28;20006;-81
2022/06/23 07:01:00;;;;;;;;;;;;;;;16.91;100.00;101298.84;5076354;28;19943;-82
2022/06/23 07:03:26;;;;;;;;;;;;;;;16.85;100.00;101299.78;5095991;28;19907;-81
2022/06/23 07:05:55;;;;;;;;;;;;;;;16.79;100.00;101294.44;5097919;28;19938;-82
2022/06/23 07:08:23;;;;;;;;;;;;;;;16.73;100.00;101298.84;5096935;28;19911;-83
2022/06/23 07:10:56;;;;;;;;;;;;;;;16.69;100.00;101300.38;5098849;28;19919;-82
2022/06/23 07:13:44;;;;;;;;;;;;;;;16.65;100.00;101304.56;5079824;28;20322;-82
2022/06/23 07:16:15;;;;;;;;;;;;;;;16.59;100.00;101300.91;5085192;28;19915;-82
2022/06/23 07:18:46;;;;;;;;;;;;;;;16.61;100.00;101300.66;5095075;28;19996;-82
2022/06/23 07:21:24;;;;;;;;;;;;;;;16.74;100.00;101313.25;5093256;28;20356;-81
2022/06/23 07:23:56;;;;;;;;;;;;;;;16.80;100.00;101318.66;5078438;28;19979;-82
2022/06/23 07:26:43;;;;;;;;;;;;;;;16.87;100.00;101315.84;5097317;28;20329;-83
2022/06/23 07:29:14;;;;;;;;;;;;;;;16.98;100.00;101319.69;5079119;28;19912;-82
2022/06/23 07:31:54;;;;;;;;;;;;;;;17.00;100.00;101318.41;5091605;28;19908;-82
2022/06/23 07:34:21;;;;;;;;;;;;;;;17.08;100.00;101320.78;5095135;28;19954;-82
2022/06/23 07:36:52;;;;;;;;;;;;;;;17.16;100.00;101324.28;5097497;28;19908;-82
2022/06/23 07:39:20;;;;;;;;;;;;;;;17.22;100.00;101320.59;5079358;28;19944;-82
2022/06/23 07:41:51;;;;;;;;;;;;;;;17.28;100.00;101316.97;5090415;28;19912;-81
2022/06/23 07:44:17;;;;;;;;;;;;;;;17.28;100.00;101325.13;5092089;28;19923;-82
2022/06/23 07:46:42;;;;;;;;;;;;;;;17.25;100.00;101329.16;5076235;28;19912;-81
2022/06/23 07:49:08;;;;;;;;;;;;;;;17.25;100.00;101329.16;5090474;28;19927;-82
2022/06/23 07:51:34;;;;;;;;;;;;;;;17.24;100.00;101335.63;5085222;28;20426;-80
2022/06/23 07:53:59;;;;;;;;;;;;;;;17.22;100.00;101337.78;5091467;28;19916;-81
2022/06/23 07:56:30;;;;;;;;;;;;;;;17.22;100.00;101335.06;5096774;28;19977;-83
2022/06/23 07:59:00;;;;;;;;;;;;;;;17.22;100.00;101340.50;5092590;28;19916;-81
2022/06/23 08:01:28;;;;;;;;;;;;;;;17.27;100.00;101337.06;5072764;28;19920;-81
2022/06/23 08:03:56;;;;;;;;;;;;;;;17.28;100.00;101338.72;5068964;28;20268;-82
2022/06/23 08:06:24;;;;;;;;;;;;;;;17.24;100.00;101346.50;5087843;28;19935;-81
2022/06/23 08:08:51;;;;;;;;;;;;;;;17.19;100.00;101334.69;5088856;28;19920;-81
2022/06/23 08:14:04;;;;;;;;;;;;;;;17.12;100.00;101338.31;5090174;28;19950;-81
2022/06/23 08:19:19;;;;;;;;;;;;;;;17.11;100.00;101349.41;5091958;28;20057;-81
2022/06/23 08:21:56;;;;;;;;;;;;;;;17.10;100.00;101351.31;5090889;28;19912;-83
2022/06/23 08:24:23;;;;;;;;;;;;;;;17.08;100.00;101358.03;5075681;28;19912;-82
2022/06/23 08:27:00;;;;;;;;;;;;;;;17.07;100.00;101359.91;5079150;28;20391;-83
2022/06/23 08:29:29;;;;;;;;;;;;;;;17.04;100.00;101359.53;5077107;28;19907;-83
2022/06/23 08:31:54;;;;;;;;;;;;;;;17.01;100.00;101368.97;5076717;28;20029;-84
2022/06/23 08:34:20;;;;;;;;;;;;;;;17.04;100.00;101357.66;5095186;28;19920;-82
2022/06/23 08:36:48;;;;;;;;;;;;;;;17.06;100.00;101362.88;5076713;28;19912;-82
2022/06/23 08:39:23;;;;;;;;;;;;;;;17.03;100.00;101369.59;5094570;28;19960;-80
2022/06/23 08:41:56;;;;;;;;;;;;;;;17.01;100.00;101366.25;5090613;28;19919;-83
2022/06/23 08:44:40;;;;;;;;;;;;;;;17.06;100.00;101365.59;5087666;28;20062;-83
2022/06/23 08:47:05;;;;;;;;;;;;;;;17.05;100.00;101378.38;5088738;28;20018;-83
2022/06/23 08:49:48;;;;;;;;;;;;;;;17.02;100.00;101373.38;5088603;28;20377;-82
2022/06/23 08:52:16;;;;;;;;;;;;;;;17.00;100.00;101366.50;5078012;28;19917;-82
2022/06/23 08:54:49;;;;;;;;;;;;;;;16.99;100.00;101370.28;5092831;28;19908;-82
2022/06/23 08:57:24;;;;;;;;;;;;;;;17.06;100.00;101371.03;5083032;28;19991;-83
2022/06/23 08:59:49;;;;;;;;;;;;;;;17.12;100.00;101378.28;5078131;28;19947;-82
2022/06/23 09:02:20;;;;;;;;;;;;;;;17.19;100.00;101372.75;5077787;28;19908;-82
2022/06/23 09:04:51;;;;;;;;;;;;;;;17.24;100.00;101376.44;5090984;28;19931;-83
2022/06/23 09:07:32;;;;;;;;;;;;;;;17.25;100.00;101378.13;5081085;28;19909;-82
2022/06/23 09:10:16;;;;;;;;;;;;;;;17.24;100.00;101387.31;5093194;28;19923;-82
2022/06/23 09:12:46;;;;;;;;;;;;;;;17.25;100.00;101386.28;5101873;28;19908;-83
2022/06/23 09:15:28;;;;;;;;;;;;;;;17.26;100.00;101379.75;5096649;28;19994;-82
2022/06/23 09:18:09;;;;;;;;;;;;;;;17.27;100.00;101396.91;5095233;28;19919;-82
2022/06/23 09:20:53;;;;;;;;;;;;;;;17.39;100.00;101392.38;5100548;28;19908;-83
2022/06/23 09:23:37;;;;;;;;;;;;;;;17.67;100.00;101391.75;5101277;28;19927;-83
2022/06/23 09:26:13;;;;;;;;;;;;;;;17.93;100.00;101396.00;5105719;28;19943;-84
2022/06/23 09:28:56;;;;;;;;;;;;;;;18.03;100.00;101389.97;5100532;28;19908;-81
2022/06/23 09:31:21;;;;;;;;;;;;;;;18.04;100.00;101395.16;5084933;28;19916;-83
2022/06/23 09:34:01;;;;;;;;;;;;;;;18.00;100.00;101393.97;5078450;28;19918;-82
2022/06/23 09:36:38;;;;;;;;;;;;;;;17.89;100.00;101400.25;5091922;28;19908;-82
2022/06/23 09:39:07;;;;;;;;;;;;;;;17.83;100.00;101396.56;5078037;28;19908;-82
2022/06/23 09:41:32;;;;;;;;;;;;;;;17.83;100.00;101396.56;5089487;28;19908;-82
2022/06/23 09:44:03;;;;;;;;;;;;;;;17.89;100.00;101394.81;5096910;28;19954;-81
2022/06/23 09:46:54;;;;;;;;;;;;;;;17.96;100.00;101387.34;5096347;28;19977;-80
2022/06/23 09:49:39;;;;;;;;;;;;;;;18.06;100.00;101394.94;5059498;28;19912;-81
2022/06/23 09:52:16;;;;;;;;;;;;;;;17.98;100.00;101395.28;5077204;28;19917;-81
2022/06/23 09:55:00;;;;;;;;;;;;;;;17.98;100.00;101398.00;5093476;28;19924;-81
2022/06/23 09:57:44;;;;;;;;;;;;;;;17.93;100.00;101401.44;5099841;28;19947;-80
2022/06/23 10:00:16;;;;;;;;;;;;;;;18.02;100.00;101410.09;5084564;28;20011;-81
2022/06/23 10:02:56;;;;;;;;;;;;;;;18.24;100.00;101408.47;5089293;28;19916;-81
2022/06/23 10:05:37;;;;;;;;;;;;;;;18.46;100.00;101403.28;5084793;28;19962;-82
2022/06/23 10:08:20;;;;;;;;;;;;;;;18.67;100.00;101411.91;5079901;28;20341;-82
2022/06/23 10:10:54;;;;;;;;;;;;;;;18.85;100.00;101413.72;5081193;28;20050;-80
2022/06/23 10:13:29;;;;;;;;;;;;;;;19.04;100.00;101417.97;5079951;28;19912;-79
2022/06/23 10:16:21;;;;;;;;;;;;;;;19.32;100.00;101411.69;5058205;28;20632;-82
2022/06/23 10:18:49;;;;;;;;;;;;;;;19.68;100.00;101402.31;5025941;28;20061;-80
2022/06/23 10:21:38;;;;;;;;;;;;;;;19.81;100.00;101400.38;5071729;28;20001;-81
2022/06/23 10:24:21;;;;;;;;;;;;;;;19.81;100.00;101408.56;5036112;28;19920;-80
2022/06/23 10:26:49;;;;;;;;;;;;;;;19.56;100.00;101411.59;5074508;28;19919;-82
2022/06/23 10:29:14;;;;;;;;;;;;;;;19.25;100.00;101411.00;5077478;28;19908;-81
2022/06/23 10:31:58;;;;;;;;;;;;;;;19.10;100.00;101422.44;5074414;28;20408;-81
2022/06/23 10:34:42;;;;;;;;;;;;;;;19.02;100.00;101418.19;5071213;28;19944;-81
2022/06/23 10:37:22;;;;;;;;;;;;;;;18.95;100.00;101424.84;5067404;28;19915;-79
2022/06/23 10:40:01;;;;;;;;;;;;;;;19.12;100.00;101425.75;5069969;28;19947;-80
2022/06/23 10:42:36;;;;;;;;;;;;;;;19.32;100.00;101425.34;5096531;28;20331;-81
2022/06/23 10:45:16;;;;;;;;;;;;;;;19.48;100.00;101421.03;5067262;28;19938;-80
2022/06/23 10:48:00;;;;;;;;;;;;;;;19.60;100.00;101410.88;5079552;28;19916;-80
2022/06/23 10:50:37;;;;;;;;;;;;;;;19.68;100.00;101420.59;5094678;28;19912;-81
2022/06/23 10:53:02;;;;;;;;;;;;;;;19.65;100.00;101419.19;5087267;28;19920;-81
2022/06/23 10:55:46;;;;;;;;;;;;;;;19.66;100.00;101425.47;5098646;28;19931;-80
2022/06/23 10:58:35;;;;;;;;;;;;;;;19.66;100.00;101420.00;5092685;28;19912;-81
2022/06/23 11:01:11;;;;;;;;;;;;;;;19.63;100.00;101420.47;5095448;28;19962;-80
2022/06/23 11:03:50;;;;;;;;;;;;;;;19.67;100.00;101427.97;5092010;28;20004;-81
2022/06/23 11:06:25;;;;;;;;;;;;;;;19.78;100.00;101430.91;5092232;28;19922;-82
2022/06/23 11:09:06;;;;;;;;;;;;;;;19.70;100.00;101424.75;5094284;28;19912;-83
2022/06/23 11:11:39;;;;;;;;;;;;;;;19.56;100.00;101426.06;5097798;28;19926;-80
2022/06/23 11:14:24;;;;;;;;;;;;;;;19.45;100.00;101429.69;5094709;28;20353;-82
2022/06/23 11:17:01;;;;;;;;;;;;;;;19.45;100.00;101425.06;5081648;28;20000;-82
2022/06/23 11:19:34;;;;;;;;;;;;;;;19.32;100.00;101435.44;5095246;28;19907;-80
2022/06/23 11:22:08;;;;;;;;;;;;;;;19.24;100.00;101428.47;5093992;28;20326;-82
2022/06/23 11:24:49;;;;;;;;;;;;;;;19.15;100.00;101430.72;5093811;28;19908;-81
2022/06/23 11:27:24;;;;;;;;;;;;;;;19.18;100.00;101435.72;5098152;28;19908;-81
2022/06/23 11:30:10;;;;;;;;;;;;;;;19.42;100.00;101433.72;5099376;28;19969;-80
2022/06/23 11:32:48;;;;;;;;;;;;;;;19.75;100.00;101434.13;5075047;28;19935;-84
2022/06/23 11:35:33;;;;;;;;;;;;;;;19.92;100.00;101434.97;5093954;28;20057;-83
2022/06/23 11:38:07;;;;;;;;;;;;;;;20.13;100.00;101431.53;5056329;28;19941;-82
2022/06/23 11:40:51;;;;;;;;;;;;;;;20.05;100.00;101434.66;5095668;28;19912;-82
2022/06/23 11:43:22;;;;;;;;;;;;;;;19.87;100.00;101443.09;5089166;28;20006;-81
2022/06/23 11:46:06;;;;;;;;;;;;;;;19.80;100.00;101440.50;5091570;28;20467;-82
2022/06/23 11:48:50;;;;;;;;;;;;;;;19.85;100.00;101439.75;5091965;28;19916;-81
2022/06/23 11:51:34;;;;;;;;;;;;;;;20.02;100.00;101439.78;5096874;28;19912;-82
2022/06/23 11:54:35;;;;;;;;;;;;;;;20.38;100.00;101438.47;5077477;28;19915;-80
2022/06/23 11:57:09;;;;;;;;;;;;;;;20.71;100.00;101443.09;5015673;28;20030;-81
2022/06/23 11:59:34;;;;;;;;;;;;;;;20.95;100.00;101434.69;5065512;28;19912;-82
2022/06/23 12:02:00;;;;;;;;;;;;;;;21.00;100.00;101442.97;5108826;27;20041;-82
2022/06/23 12:04:50;;;;;;;;;;;;;;;20.96;100.00;101445.38;5060876;28;20272;-80
2022/06/23 12:07:34;;;;;;;;;;;;;;;21.21;100.00;101452.25;5075303;28;19912;-82
2022/06/23 12:10:02;;;;;;;;;;;;;;;21.23;100.00;101453.69;5093408;28;20360;-81
2022/06/23 12:12:29;;;;;;;;;;;;;;;21.10;100.00;101454.06;5095010;28;19912;-81
2022/06/23 12:14:54;;;;;;;;;;;;;;;20.97;100.00;101444.31;5095286;28;20322;-81
2022/06/23 12:17:29;;;;;;;;;;;;;;;20.73;100.00;101451.03;5092113;28;19927;-81
2022/06/23 12:19:57;;;;;;;;;;;;;;;20.48;100.00;101456.94;5089311;28;19920;-81
2022/06/23 12:22:30;;;;;;;;;;;;;;;20.53;100.00;101455.16;5084909;28;19924;-82
2022/06/23 12:25:19;;;;;;;;;;;;;;;20.73;100.00;101456.53;5086448;28;20250;-81
2022/06/23 12:27:49;;;;;;;;;;;;;;;20.55;100.00;101460.34;5084081;28;19908;-81
2022/06/23 12:30:19;;;;;;;;;;;;;;;20.38;100.00;101458.44;5094918;28;19959;-81
2022/06/23 12:33:13;;;;;;;;;;;;;;;20.23;100.00;101465.53;5091608;28;20239;-80
2022/06/23 12:35:38;;;;;;;;;;;;;;;19.95;100.00;101459.88;5045341;28;19908;-82
2022/06/23 12:38:07;;;;;;;;;;;;;;;19.84;100.00;101452.59;5092722;28;19908;-81
2022/06/23 12:40:53;;;;;;;;;;;;;;;19.78;100.00;101461.75;5074328;28;19912;-80
2022/06/23 12:43:51;;;;;;;;;;;;;;;19.85;100.00;101453.41;5074010;28;19912;-82
2022/06/23 12:46:23;;;;;;;;;;;;;;;20.08;100.00;101453.28;5063192;28;19908;-82
2022/06/23 12:48:51;;;;;;;;;;;;;;;20.36;100.00;101454.28;5079206;28;19935;-82
2022/06/23 12:51:16;;;;;;;;;;;;;;;20.70;100.00;101449.66;5100787;28;19912;-82
2022/06/23 12:53:51;;;;;;;;;;;;;;;20.83;100.00;101443.00;5103464;28;19920;-83
2022/06/23 12:56:29;;;;;;;;;;;;;;;21.22;100.00;101445.69;5097586;28;20372;-83
2022/06/23 12:59:02;;;;;;;;;;;;;;;21.53;100.00;101449.69;5092677;28;19979;-82
2022/06/23 13:01:33;;;;;;;;;;;;;;;21.67;100.00;101447.38;5089829;28;19958;-82
2022/06/23 13:04:05;;;;;;;;;;;;;;;21.72;100.00;101448.25;5078632;28;19922;-82
2022/06/23 13:06:49;;;;;;;;;;;;;;;21.48;100.00;101444.97;5087249;28;19916;-81
2022/06/23 13:09:35;;;;;;;;;;;;;;;21.29;100.00;101449.91;5096086;28;20338;-82